sensor_id;sensor_type;location;lat;lon;timestamp;P1;durP1;ratioP1;P2;durP2;ratioP2
29634;SDS011;16557;54.762;56.068;2023-08-24T00:01:01;4.70;;;1.25;;
29634;SDS011;16557;54.762;56.068;2023-08-24T00:03:30;6.53;;;1.37;;
29634;SDS011;16557;54.762;56.068;2023-08-24T00:06:00;2.80;;;1.50;;
29634;SDS011;16557;54.762;56.068;2023-08-24T00:08:29;5.33;;;1.30;;
29634;SDS011;16557;54.762;56.068;2023-08-24T00:10:59;3.42;;;1.92;;
29634;SDS011;16557;54.762;56.068;2023-08-24T00:13:29;5.35;;;1.50;;
29634;SDS011;16557;54.762;56.068;2023-08-24T00:15:58;3.67;;;1.32;;
29634;SDS011;16557;54.762;56.068;2023-08-24T00:18:27;6.08;;;1.50;;
29634;SDS011;16557;54.762;56.068;2023-08-24T00:20:56;4.10;;;1.77;;
29634;SDS011;16557;54.762;56.068;2023-08-24T00:23:26;6.30;;;2.00;;
29634;SDS011;16557;54.762;56.068;2023-08-24T00:25:55;6.35;;;1.47;;
29634;SDS011;16557;54.762;56.068;2023-08-24T00:28:30;4.67;;;1.42;;
29634;SDS011;16557;54.762;56.068;2023-08-24T00:30:55;4.03;;;1.45;;
29634;SDS011;16557;54.762;56.068;2023-08-24T00:33:25;3.70;;;2.12;;
29634;SDS011;16557;54.762;56.068;2023-08-24T00:35:58;6.75;;;2.25;;
29634;SDS011;16557;54.762;56.068;2023-08-24T00:38:28;3.87;;;1.85;;
29634;SDS011;16557;54.762;56.068;2023-08-24T00:40:57;3.22;;;1.50;;
29634;SDS011;16557;54.762;56.068;2023-08-24T00:43:27;4.53;;;1.80;;
29634;SDS011;16557;54.762;56.068;2023-08-24T00:45:57;4.65;;;1.30;;
29634;SDS011;16557;54.762;56.068;2023-08-24T00:48:28;5.72;;;1.60;;
29634;SDS011;16557;54.762;56.068;2023-08-24T00:50:59;8.50;;;1.92;;
29634;SDS011;16557;54.762;56.068;2023-08-24T00:53:29;3.50;;;1.30;;
29634;SDS011;16557;54.762;56.068;2023-08-24T00:55:59;3.42;;;1.82;;
29634;SDS011;16557;54.762;56.068;2023-08-24T00:58:28;4.37;;;1.72;;
29634;SDS011;16557;54.762;56.068;2023-08-24T01:00:58;7.30;;;1.70;;
29634;SDS011;16557;54.762;56.068;2023-08-24T01:03:28;5.17;;;1.72;;
29634;SDS011;16557;54.762;56.068;2023-08-24T01:05:57;3.87;;;1.72;;
29634;SDS011;16557;54.762;56.068;2023-08-24T01:08:26;4.33;;;1.50;;
29634;SDS011;16557;54.762;56.068;2023-08-24T01:10:59;9.50;;;1.90;;
29634;SDS011;16557;54.762;56.068;2023-08-24T01:13:51;3.67;;;1.82;;
29634;SDS011;16557;54.762;56.068;2023-08-24T01:16:19;5.62;;;1.55;;
29634;SDS011;16557;54.762;56.068;2023-08-24T01:18:52;5.05;;;1.70;;
29634;SDS011;16557;54.762;56.068;2023-08-24T01:21:26;7.75;;;2.30;;
29634;SDS011;16557;54.762;56.068;2023-08-24T01:24:17;7.85;;;2.22;;
29634;SDS011;16557;54.762;56.068;2023-08-24T01:26:49;7.73;;;2.50;;
29634;SDS011;16557;54.762;56.068;2023-08-24T01:29:18;9.35;;;2.58;;
29634;SDS011;16557;54.762;56.068;2023-08-24T01:31:48;10.98;;;2.50;;
29634;SDS011;16557;54.762;56.068;2023-08-24T01:34:18;8.18;;;3.52;;
29634;SDS011;16557;54.762;56.068;2023-08-24T01:36:47;10.85;;;3.25;;
29634;SDS011;16557;54.762;56.068;2023-08-24T01:39:33;16.50;;;4.00;;
29634;SDS011;16557;54.762;56.068;2023-08-24T01:42:02;9.38;;;2.83;;
29634;SDS011;16557;54.762;56.068;2023-08-24T01:44:33;15.45;;;2.80;;
29634;SDS011;16557;54.762;56.068;2023-08-24T01:47:03;12.55;;;3.15;;
29634;SDS011;16557;54.762;56.068;2023-08-24T01:49:34;13.70;;;3.15;;
29634;SDS011;16557;54.762;56.068;2023-08-24T01:52:03;14.10;;;3.58;;
29634;SDS011;16557;54.762;56.068;2023-08-24T01:54:33;14.25;;;3.47;;
29634;SDS011;16557;54.762;56.068;2023-08-24T01:57:04;13.00;;;2.90;;
29634;SDS011;16557;54.762;56.068;2023-08-24T01:59:33;10.75;;;2.72;;
29634;SDS011;16557;54.762;56.068;2023-08-24T02:02:03;9.08;;;2.62;;
29634;SDS011;16557;54.762;56.068;2023-08-24T02:04:32;8.85;;;2.20;;
29634;SDS011;16557;54.762;56.068;2023-08-24T02:07:01;9.65;;;2.65;;
29634;SDS011;16557;54.762;56.068;2023-08-24T02:09:31;8.80;;;2.27;;
29634;SDS011;16557;54.762;56.068;2023-08-24T02:12:00;8.05;;;2.95;;
29634;SDS011;16557;54.762;56.068;2023-08-24T02:14:29;4.83;;;3.72;;
29634;SDS011;16557;54.762;56.068;2023-08-24T02:17:00;9.93;;;3.80;;
29634;SDS011;16557;54.762;56.068;2023-08-24T02:19:30;9.28;;;3.20;;
29634;SDS011;16557;54.762;56.068;2023-08-24T02:22:00;11.55;;;4.15;;
29634;SDS011;16557;54.762;56.068;2023-08-24T02:24:29;9.10;;;5.17;;
29634;SDS011;16557;54.762;56.068;2023-08-24T02:26:58;9.53;;;5.25;;
29634;SDS011;16557;54.762;56.068;2023-08-24T02:29:27;22.58;;;5.70;;
29634;SDS011;16557;54.762;56.068;2023-08-24T02:31:57;14.20;;;5.17;;
29634;SDS011;16557;54.762;56.068;2023-08-24T02:34:26;36.70;;;6.10;;
29634;SDS011;16557;54.762;56.068;2023-08-24T02:36:56;9.63;;;4.80;;
29634;SDS011;16557;54.762;56.068;2023-08-24T02:39:25;11.43;;;4.28;;
29634;SDS011;16557;54.762;56.068;2023-08-24T02:41:55;9.50;;;3.55;;
29634;SDS011;16557;54.762;56.068;2023-08-24T02:44:24;10.53;;;4.08;;
29634;SDS011;16557;54.762;56.068;2023-08-24T02:46:54;6.72;;;3.70;;
29634;SDS011;16557;54.762;56.068;2023-08-24T02:49:23;11.30;;;4.30;;
29634;SDS011;16557;54.762;56.068;2023-08-24T02:51:53;15.85;;;4.50;;
29634;SDS011;16557;54.762;56.068;2023-08-24T02:54:22;7.95;;;3.87;;
29634;SDS011;16557;54.762;56.068;2023-08-24T02:56:51;9.20;;;3.70;;
29634;SDS011;16557;54.762;56.068;2023-08-24T02:59:22;11.63;;;4.00;;
29634;SDS011;16557;54.762;56.068;2023-08-24T03:01:51;6.58;;;2.70;;
29634;SDS011;16557;54.762;56.068;2023-08-24T03:04:21;10.68;;;2.60;;
29634;SDS011;16557;54.762;56.068;2023-08-24T03:06:50;6.80;;;2.12;;
29634;SDS011;16557;54.762;56.068;2023-08-24T03:09:19;6.47;;;2.05;;
29634;SDS011;16557;54.762;56.068;2023-08-24T03:11:49;7.50;;;2.90;;
29634;SDS011;16557;54.762;56.068;2023-08-24T03:14:18;9.18;;;3.55;;
29634;SDS011;16557;54.762;56.068;2023-08-24T03:16:47;9.50;;;2.90;;
29634;SDS011;16557;54.762;56.068;2023-08-24T03:19:17;7.20;;;2.58;;
29634;SDS011;16557;54.762;56.068;2023-08-24T03:21:46;10.58;;;3.02;;
29634;SDS011;16557;54.762;56.068;2023-08-24T03:24:15;16.02;;;3.15;;
29634;SDS011;16557;54.762;56.068;2023-08-24T03:26:45;10.05;;;3.20;;
29634;SDS011;16557;54.762;56.068;2023-08-24T03:29:16;10.08;;;2.62;;
29634;SDS011;16557;54.762;56.068;2023-08-24T03:31:45;8.50;;;3.00;;
29634;SDS011;16557;54.762;56.068;2023-08-24T03:34:14;16.50;;;2.90;;
29634;SDS011;16557;54.762;56.068;2023-08-24T03:36:44;18.73;;;4.70;;
29634;SDS011;16557;54.762;56.068;2023-08-24T03:39:13;13.45;;;4.37;;
29634;SDS011;16557;54.762;56.068;2023-08-24T03:41:45;16.20;;;5.15;;
29634;SDS011;16557;54.762;56.068;2023-08-24T03:44:15;14.80;;;4.20;;
29634;SDS011;16557;54.762;56.068;2023-08-24T03:46:44;8.75;;;3.60;;
29634;SDS011;16557;54.762;56.068;2023-08-24T03:49:13;7.08;;;3.80;;
29634;SDS011;16557;54.762;56.068;2023-08-24T03:51:43;18.15;;;4.45;;
29634;SDS011;16557;54.762;56.068;2023-08-24T03:54:12;13.55;;;4.47;;
29634;SDS011;16557;54.762;56.068;2023-08-24T03:56:41;10.30;;;3.70;;
29634;SDS011;16557;54.762;56.068;2023-08-24T03:59:10;10.25;;;4.55;;
29634;SDS011;16557;54.762;56.068;2023-08-24T04:01:41;8.58;;;4.03;;
29634;SDS011;16557;54.762;56.068;2023-08-24T04:04:11;6.67;;;3.80;;
29634;SDS011;16557;54.762;56.068;2023-08-24T04:06:40;14.13;;;4.42;;
29634;SDS011;16557;54.762;56.068;2023-08-24T04:09:09;8.70;;;3.80;;
29634;SDS011;16557;54.762;56.068;2023-08-24T04:11:39;10.78;;;3.72;;
29634;SDS011;16557;54.762;56.068;2023-08-24T04:14:08;10.85;;;4.08;;
29634;SDS011;16557;54.762;56.068;2023-08-24T04:16:37;12.58;;;4.03;;
29634;SDS011;16557;54.762;56.068;2023-08-24T04:19:07;9.90;;;3.90;;
29634;SDS011;16557;54.762;56.068;2023-08-24T04:21:36;6.28;;;3.50;;
29634;SDS011;16557;54.762;56.068;2023-08-24T04:24:05;11.60;;;4.45;;
29634;SDS011;16557;54.762;56.068;2023-08-24T04:26:35;11.05;;;4.53;;
29634;SDS011;16557;54.762;56.068;2023-08-24T04:29:04;12.30;;;4.08;;
29634;SDS011;16557;54.762;56.068;2023-08-24T04:31:33;11.65;;;4.00;;
29634;SDS011;16557;54.762;56.068;2023-08-24T04:34:04;13.22;;;4.28;;
29634;SDS011;16557;54.762;56.068;2023-08-24T04:36:35;12.13;;;4.25;;
29634;SDS011;16557;54.762;56.068;2023-08-24T04:39:05;11.10;;;4.62;;
29634;SDS011;16557;54.762;56.068;2023-08-24T04:41:34;15.32;;;5.00;;
29634;SDS011;16557;54.762;56.068;2023-08-24T04:44:03;19.95;;;5.53;;
29634;SDS011;16557;54.762;56.068;2023-08-24T04:46:34;15.95;;;5.72;;
29634;SDS011;16557;54.762;56.068;2023-08-24T04:49:03;25.15;;;6.78;;
29634;SDS011;16557;54.762;56.068;2023-08-24T04:51:32;17.35;;;6.62;;
29634;SDS011;16557;54.762;56.068;2023-08-24T04:54:02;17.55;;;6.40;;
29634;SDS011;16557;54.762;56.068;2023-08-24T04:56:31;13.25;;;5.70;;
29634;SDS011;16557;54.762;56.068;2023-08-24T04:59:00;19.80;;;5.03;;
29634;SDS011;16557;54.762;56.068;2023-08-24T05:01:30;16.45;;;4.75;;
29634;SDS011;16557;54.762;56.068;2023-08-24T05:04:02;16.65;;;5.00;;
29634;SDS011;16557;54.762;56.068;2023-08-24T05:06:31;15.60;;;4.80;;
29634;SDS011;16557;54.762;56.068;2023-08-24T05:09:01;19.95;;;5.25;;
29634;SDS011;16557;54.762;56.068;2023-08-24T05:11:30;19.45;;;4.92;;
29634;SDS011;16557;54.762;56.068;2023-08-24T05:13:59;22.00;;;3.77;;
29634;SDS011;16557;54.762;56.068;2023-08-24T05:16:28;24.65;;;3.95;;
29634;SDS011;16557;54.762;56.068;2023-08-24T05:18:58;17.57;;;5.17;;
29634;SDS011;16557;54.762;56.068;2023-08-24T05:21:27;19.92;;;4.45;;
29634;SDS011;16557;54.762;56.068;2023-08-24T05:23:56;16.40;;;3.67;;
29634;SDS011;16557;54.762;56.068;2023-08-24T05:26:26;28.15;;;3.85;;
29634;SDS011;16557;54.762;56.068;2023-08-24T05:28:55;15.68;;;4.37;;
29634;SDS011;16557;54.762;56.068;2023-08-24T05:31:24;23.42;;;4.25;;
29634;SDS011;16557;54.762;56.068;2023-08-24T05:33:53;20.72;;;6.47;;
29634;SDS011;16557;54.762;56.068;2023-08-24T05:36:23;17.12;;;4.35;;
29634;SDS011;16557;54.762;56.068;2023-08-24T05:38:52;17.73;;;4.87;;
29634;SDS011;16557;54.762;56.068;2023-08-24T05:41:23;20.62;;;6.15;;
29634;SDS011;16557;54.762;56.068;2023-08-24T05:43:52;17.80;;;4.35;;
29634;SDS011;16557;54.762;56.068;2023-08-24T05:46:21;18.15;;;4.67;;
29634;SDS011;16557;54.762;56.068;2023-08-24T05:48:51;17.87;;;3.62;;
29634;SDS011;16557;54.762;56.068;2023-08-24T05:51:20;19.45;;;4.12;;
29634;SDS011;16557;54.762;56.068;2023-08-24T05:53:49;14.47;;;4.60;;
29634;SDS011;16557;54.762;56.068;2023-08-24T05:56:23;25.80;;;5.03;;
29634;SDS011;16557;54.762;56.068;2023-08-24T05:58:54;16.50;;;3.77;;
29634;SDS011;16557;54.762;56.068;2023-08-24T06:01:23;15.45;;;3.70;;
29634;SDS011;16557;54.762;56.068;2023-08-24T06:03:52;20.88;;;3.95;;
29634;SDS011;16557;54.762;56.068;2023-08-24T06:06:22;13.30;;;2.60;;
29634;SDS011;16557;54.762;56.068;2023-08-24T06:08:51;20.10;;;2.90;;
29634;SDS011;16557;54.762;56.068;2023-08-24T06:11:20;7.65;;;2.50;;
29634;SDS011;16557;54.762;56.068;2023-08-24T06:13:50;17.45;;;2.80;;
29634;SDS011;16557;54.762;56.068;2023-08-24T06:16:21;9.85;;;3.80;;
29634;SDS011;16557;54.762;56.068;2023-08-24T06:18:50;13.40;;;2.80;;
29634;SDS011;16557;54.762;56.068;2023-08-24T06:21:19;10.70;;;1.98;;
29634;SDS011;16557;54.762;56.068;2023-08-24T06:23:49;10.53;;;2.05;;
29634;SDS011;16557;54.762;56.068;2023-08-24T06:26:18;7.30;;;1.70;;
29634;SDS011;16557;54.762;56.068;2023-08-24T06:28:47;7.17;;;1.27;;
29634;SDS011;16557;54.762;56.068;2023-08-24T06:31:17;7.67;;;1.77;;
29634;SDS011;16557;54.762;56.068;2023-08-24T06:33:46;5.80;;;1.92;;
29634;SDS011;16557;54.762;56.068;2023-08-24T06:36:15;10.72;;;1.70;;
29634;SDS011;16557;54.762;56.068;2023-08-24T06:38:45;13.62;;;5.35;;
29634;SDS011;16557;54.762;56.068;2023-08-24T06:41:14;8.55;;;2.75;;
29634;SDS011;16557;54.762;56.068;2023-08-24T06:43:43;16.65;;;2.37;;
29634;SDS011;16557;54.762;56.068;2023-08-24T06:46:13;6.47;;;1.12;;
29634;SDS011;16557;54.762;56.068;2023-08-24T06:48:42;2.70;;;1.20;;
29634;SDS011;16557;54.762;56.068;2023-08-24T06:51:12;4.35;;;1.17;;
29634;SDS011;16557;54.762;56.068;2023-08-24T06:53:42;7.33;;;2.15;;
29634;SDS011;16557;54.762;56.068;2023-08-24T06:56:11;5.60;;;0.90;;
29634;SDS011;16557;54.762;56.068;2023-08-24T06:58:42;8.48;;;1.12;;
29634;SDS011;16557;54.762;56.068;2023-08-24T07:01:11;4.17;;;0.80;;
29634;SDS011;16557;54.762;56.068;2023-08-24T07:03:41;7.03;;;1.65;;
29634;SDS011;16557;54.762;56.068;2023-08-24T07:06:10;5.40;;;1.40;;
29634;SDS011;16557;54.762;56.068;2023-08-24T07:08:39;3.52;;;0.80;;
29634;SDS011;16557;54.762;56.068;2023-08-24T07:11:09;4.05;;;0.72;;
29634;SDS011;16557;54.762;56.068;2023-08-24T07:13:38;12.88;;;1.47;;
29634;SDS011;16557;54.762;56.068;2023-08-24T07:16:07;3.27;;;1.20;;
29634;SDS011;16557;54.762;56.068;2023-08-24T07:18:36;6.90;;;0.90;;
29634;SDS011;16557;54.762;56.068;2023-08-24T07:21:06;6.72;;;1.02;;
29634;SDS011;16557;54.762;56.068;2023-08-24T07:23:35;6.40;;;1.25;;
29634;SDS011;16557;54.762;56.068;2023-08-24T07:26:04;10.65;;;1.40;;
29634;SDS011;16557;54.762;56.068;2023-08-24T07:28:35;5.90;;;0.80;;
29634;SDS011;16557;54.762;56.068;2023-08-24T07:31:13;8.30;;;0.95;;
29634;SDS011;16557;54.762;56.068;2023-08-24T07:33:38;9.68;;;2.50;;
29634;SDS011;16557;54.762;56.068;2023-08-24T07:36:10;5.12;;;1.77;;
29634;SDS011;16557;54.762;56.068;2023-08-24T07:38:39;1.90;;;0.90;;
29634;SDS011;16557;54.762;56.068;2023-08-24T07:41:09;4.85;;;0.90;;
29634;SDS011;16557;54.762;56.068;2023-08-24T07:43:39;5.33;;;1.50;;
29634;SDS011;16557;54.762;56.068;2023-08-24T07:46:08;3.02;;;0.80;;
29634;SDS011;16557;54.762;56.068;2023-08-24T07:48:38;6.58;;;0.50;;
29634;SDS011;16557;54.762;56.068;2023-08-24T07:51:07;5.87;;;0.82;;
29634;SDS011;16557;54.762;56.068;2023-08-24T07:53:36;5.55;;;0.80;;
29634;SDS011;16557;54.762;56.068;2023-08-24T07:56:06;4.60;;;0.90;;
29634;SDS011;16557;54.762;56.068;2023-08-24T07:58:35;5.05;;;0.90;;
29634;SDS011;16557;54.762;56.068;2023-08-24T08:01:05;6.60;;;1.22;;
29634;SDS011;16557;54.762;56.068;2023-08-24T08:03:36;6.70;;;0.70;;
29634;SDS011;16557;54.762;56.068;2023-08-24T08:06:06;6.58;;;2.80;;
29634;SDS011;16557;54.762;56.068;2023-08-24T08:08:35;3.60;;;1.10;;
29634;SDS011;16557;54.762;56.068;2023-08-24T08:11:05;7.65;;;0.98;;
29634;SDS011;16557;54.762;56.068;2023-08-24T08:13:34;6.50;;;1.00;;
29634;SDS011;16557;54.762;56.068;2023-08-24T08:16:03;3.67;;;0.50;;
29634;SDS011;16557;54.762;56.068;2023-08-24T08:18:34;1.62;;;0.60;;
29634;SDS011;16557;54.762;56.068;2023-08-24T08:21:10;4.35;;;0.60;;
29634;SDS011;16557;54.762;56.068;2023-08-24T08:23:41;7.72;;;1.67;;
29634;SDS011;16557;54.762;56.068;2023-08-24T08:26:11;1.65;;;0.70;;
29634;SDS011;16557;54.762;56.068;2023-08-24T08:28:42;1.90;;;0.50;;
29634;SDS011;16557;54.762;56.068;2023-08-24T08:31:14;2.87;;;0.60;;
29634;SDS011;16557;54.762;56.068;2023-08-24T08:33:43;4.03;;;0.90;;
29634;SDS011;16557;54.762;56.068;2023-08-24T08:36:16;5.60;;;0.93;;
29634;SDS011;16557;54.762;56.068;2023-08-24T08:38:47;1.95;;;0.50;;
29634;SDS011;16557;54.762;56.068;2023-08-24T08:41:21;2.55;;;0.80;;
29634;SDS011;16557;54.762;56.068;2023-08-24T08:43:50;1.07;;;0.80;;
29634;SDS011;16557;54.762;56.068;2023-08-24T08:46:20;2.10;;;1.05;;
29634;SDS011;16557;54.762;56.068;2023-08-24T08:48:51;4.90;;;0.72;;
29634;SDS011;16557;54.762;56.068;2023-08-24T08:51:21;1.70;;;0.93;;
29634;SDS011;16557;54.762;56.068;2023-08-24T08:53:50;2.67;;;0.60;;
29634;SDS011;16557;54.762;56.068;2023-08-24T08:56:20;1.92;;;0.68;;
29634;SDS011;16557;54.762;56.068;2023-08-24T08:58:51;3.85;;;0.78;;
29634;SDS011;16557;54.762;56.068;2023-08-24T09:01:23;3.27;;;0.80;;
29634;SDS011;16557;54.762;56.068;2023-08-24T09:03:53;3.75;;;0.50;;
29634;SDS011;16557;54.762;56.068;2023-08-24T09:06:24;3.00;;;0.70;;
29634;SDS011;16557;54.762;56.068;2023-08-24T09:08:54;2.75;;;0.40;;
29634;SDS011;16557;54.762;56.068;2023-08-24T09:11:24;6.28;;;1.00;;
29634;SDS011;16557;54.762;56.068;2023-08-24T09:13:54;2.83;;;0.80;;
29634;SDS011;16557;54.762;56.068;2023-08-24T09:16:23;0.75;;;0.57;;
29634;SDS011;16557;54.762;56.068;2023-08-24T09:18:57;0.98;;;0.40;;
29634;SDS011;16557;54.762;56.068;2023-08-24T09:21:27;4.97;;;2.42;;
29634;SDS011;16557;54.762;56.068;2023-08-24T09:23:56;1.85;;;0.80;;
29634;SDS011;16557;54.762;56.068;2023-08-24T09:26:36;2.05;;;1.10;;
29634;SDS011;16557;54.762;56.068;2023-08-24T09:29:11;3.72;;;0.57;;
29634;SDS011;16557;54.762;56.068;2023-08-24T09:31:42;3.72;;;0.70;;
29634;SDS011;16557;54.762;56.068;2023-08-24T09:34:12;1.25;;;0.82;;
29634;SDS011;16557;54.762;56.068;2023-08-24T09:36:42;2.55;;;0.60;;
29634;SDS011;16557;54.762;56.068;2023-08-24T09:39:15;2.50;;;0.60;;
29634;SDS011;16557;54.762;56.068;2023-08-24T09:41:48;3.37;;;0.60;;
29634;SDS011;16557;54.762;56.068;2023-08-24T09:44:18;1.47;;;0.50;;
29634;SDS011;16557;54.762;56.068;2023-08-24T09:46:47;1.85;;;1.02;;
29634;SDS011;16557;54.762;56.068;2023-08-24T09:49:20;3.65;;;2.25;;
29634;SDS011;16557;54.762;56.068;2023-08-24T09:51:51;1.47;;;0.60;;
29634;SDS011;16557;54.762;56.068;2023-08-24T09:54:21;2.58;;;0.78;;
29634;SDS011;16557;54.762;56.068;2023-08-24T09:56:52;2.42;;;0.80;;
29634;SDS011;16557;54.762;56.068;2023-08-24T09:59:27;1.57;;;0.50;;
29634;SDS011;16557;54.762;56.068;2023-08-24T10:01:57;0.78;;;0.60;;
29634;SDS011;16557;54.762;56.068;2023-08-24T10:04:29;3.20;;;1.20;;
29634;SDS011;16557;54.762;56.068;2023-08-24T10:07:08;2.92;;;0.68;;
29634;SDS011;16557;54.762;56.068;2023-08-24T10:10:03;1.02;;;0.75;;
29634;SDS011;16557;54.762;56.068;2023-08-24T10:12:38;1.15;;;0.40;;
29634;SDS011;16557;54.762;56.068;2023-08-24T10:15:10;4.07;;;0.60;;
29634;SDS011;16557;54.762;56.068;2023-08-24T10:17:40;3.60;;;0.65;;
29634;SDS011;16557;54.762;56.068;2023-08-24T10:20:13;3.02;;;0.60;;
29634;SDS011;16557;54.762;56.068;2023-08-24T10:22:42;2.47;;;0.70;;
29634;SDS011;16557;54.762;56.068;2023-08-24T10:25:13;1.57;;;0.60;;
29634;SDS011;16557;54.762;56.068;2023-08-24T10:27:45;4.08;;;0.75;;
29634;SDS011;16557;54.762;56.068;2023-08-24T10:30:16;1.15;;;0.60;;
29634;SDS011;16557;54.762;56.068;2023-08-24T10:32:47;1.65;;;0.50;;
29634;SDS011;16557;54.762;56.068;2023-08-24T10:35:21;1.00;;;0.55;;
29634;SDS011;16557;54.762;56.068;2023-08-24T10:37:52;2.67;;;0.53;;
29634;SDS011;16557;54.762;56.068;2023-08-24T10:40:39;4.07;;;0.80;;
29634;SDS011;16557;54.762;56.068;2023-08-24T10:43:07;3.65;;;0.60;;
29634;SDS011;16557;54.762;56.068;2023-08-24T10:48:28;2.22;;;0.75;;
29634;SDS011;16557;54.762;56.068;2023-08-24T10:53:58;2.52;;;0.72;;
29634;SDS011;16557;54.762;56.068;2023-08-24T10:56:31;2.05;;;0.70;;
29634;SDS011;16557;54.762;56.068;2023-08-24T10:59:13;4.25;;;0.82;;
29634;SDS011;16557;54.762;56.068;2023-08-24T11:04:23;1.95;;;0.60;;
29634;SDS011;16557;54.762;56.068;2023-08-24T11:06:56;1.07;;;0.50;;
29634;SDS011;16557;54.762;56.068;2023-08-24T11:09:44;2.87;;;0.95;;
29634;SDS011;16557;54.762;56.068;2023-08-24T11:12:15;2.72;;;1.37;;
29634;SDS011;16557;54.762;56.068;2023-08-24T11:14:51;3.67;;;0.70;;
29634;SDS011;16557;54.762;56.068;2023-08-24T11:17:25;3.20;;;0.60;;
29634;SDS011;16557;54.762;56.068;2023-08-24T11:20:00;1.85;;;0.60;;
29634;SDS011;16557;54.762;56.068;2023-08-24T11:22:29;3.00;;;0.50;;
29634;SDS011;16557;54.762;56.068;2023-08-24T11:25:00;3.00;;;0.90;;
29634;SDS011;16557;54.762;56.068;2023-08-24T11:27:30;2.55;;;0.80;;
29634;SDS011;16557;54.762;56.068;2023-08-24T11:30:00;3.47;;;0.90;;
29634;SDS011;16557;54.762;56.068;2023-08-24T11:32:31;1.70;;;0.80;;
29634;SDS011;16557;54.762;56.068;2023-08-24T11:35:01;4.58;;;0.80;;
29634;SDS011;16557;54.762;56.068;2023-08-24T11:37:30;1.05;;;0.70;;
29634;SDS011;16557;54.762;56.068;2023-08-24T11:39:59;5.75;;;1.00;;
29634;SDS011;16557;54.762;56.068;2023-08-24T11:42:36;2.05;;;0.60;;
29634;SDS011;16557;54.762;56.068;2023-08-24T11:45:10;1.72;;;0.50;;
29634;SDS011;16557;54.762;56.068;2023-08-24T11:47:42;8.68;;;1.20;;
29634;SDS011;16557;54.762;56.068;2023-08-24T11:50:11;2.90;;;0.57;;
29634;SDS011;16557;54.762;56.068;2023-08-24T11:52:41;3.47;;;0.80;;
29634;SDS011;16557;54.762;56.068;2023-08-24T11:55:10;2.77;;;0.60;;
29634;SDS011;16557;54.762;56.068;2023-08-24T11:57:41;6.12;;;0.82;;
29634;SDS011;16557;54.762;56.068;2023-08-24T12:00:11;2.52;;;0.60;;
29634;SDS011;16557;54.762;56.068;2023-08-24T12:02:41;5.35;;;1.22;;
29634;SDS011;16557;54.762;56.068;2023-08-24T12:05:20;2.72;;;0.98;;
29634;SDS011;16557;54.762;56.068;2023-08-24T12:07:53;2.63;;;1.00;;
29634;SDS011;16557;54.762;56.068;2023-08-24T12:10:23;3.12;;;0.60;;
29634;SDS011;16557;54.762;56.068;2023-08-24T12:15:30;3.08;;;0.70;;
29634;SDS011;16557;54.762;56.068;2023-08-24T12:18:06;1.90;;;0.60;;
29634;SDS011;16557;54.762;56.068;2023-08-24T12:20:37;5.33;;;1.00;;
29634;SDS011;16557;54.762;56.068;2023-08-24T12:23:08;2.58;;;0.60;;
29634;SDS011;16557;54.762;56.068;2023-08-24T12:25:42;2.02;;;0.80;;
29634;SDS011;16557;54.762;56.068;2023-08-24T12:28:13;0.90;;;0.35;;
29634;SDS011;16557;54.762;56.068;2023-08-24T12:30:48;2.60;;;0.80;;
29634;SDS011;16557;54.762;56.068;2023-08-24T12:35:56;2.83;;;0.70;;
29634;SDS011;16557;54.762;56.068;2023-08-24T12:38:26;4.50;;;0.62;;
29634;SDS011;16557;54.762;56.068;2023-08-24T12:40:55;1.25;;;0.40;;
29634;SDS011;16557;54.762;56.068;2023-08-24T12:43:25;0.65;;;0.40;;
29634;SDS011;16557;54.762;56.068;2023-08-24T12:45:54;6.17;;;1.15;;
29634;SDS011;16557;54.762;56.068;2023-08-24T12:48:23;9.78;;;0.80;;
29634;SDS011;16557;54.762;56.068;2023-08-24T12:50:52;2.70;;;0.70;;
29634;SDS011;16557;54.762;56.068;2023-08-24T12:53:22;3.83;;;1.02;;
29634;SDS011;16557;54.762;56.068;2023-08-24T12:55:51;6.60;;;1.27;;
29634;SDS011;16557;54.762;56.068;2023-08-24T12:58:20;5.37;;;1.32;;
29634;SDS011;16557;54.762;56.068;2023-08-24T13:00:49;2.15;;;0.50;;
29634;SDS011;16557;54.762;56.068;2023-08-24T13:03:19;3.83;;;0.72;;
29634;SDS011;16557;54.762;56.068;2023-08-24T13:05:48;2.62;;;1.35;;
29634;SDS011;16557;54.762;56.068;2023-08-24T13:08:17;7.60;;;2.27;;
29634;SDS011;16557;54.762;56.068;2023-08-24T13:10:46;5.42;;;0.82;;
29634;SDS011;16557;54.762;56.068;2023-08-24T13:13:16;0.80;;;0.55;;
29634;SDS011;16557;54.762;56.068;2023-08-24T13:15:50;0.90;;;0.47;;
29634;SDS011;16557;54.762;56.068;2023-08-24T13:18:19;4.27;;;0.73;;
29634;SDS011;16557;54.762;56.068;2023-08-24T13:20:49;4.58;;;0.62;;
29634;SDS011;16557;54.762;56.068;2023-08-24T13:23:18;3.52;;;0.60;;
29634;SDS011;16557;54.762;56.068;2023-08-24T13:25:47;2.70;;;1.50;;
29634;SDS011;16557;54.762;56.068;2023-08-24T13:28:20;7.85;;;5.50;;
29634;SDS011;16557;54.762;56.068;2023-08-24T13:30:49;7.03;;;1.02;;
29634;SDS011;16557;54.762;56.068;2023-08-24T13:33:19;2.10;;;0.90;;
29634;SDS011;16557;54.762;56.068;2023-08-24T13:35:48;7.85;;;1.10;;
29634;SDS011;16557;54.762;56.068;2023-08-24T13:38:17;5.47;;;0.90;;
29634;SDS011;16557;54.762;56.068;2023-08-24T13:40:47;3.67;;;1.15;;
29634;SDS011;16557;54.762;56.068;2023-08-24T13:43:17;4.25;;;0.95;;
29634;SDS011;16557;54.762;56.068;2023-08-24T13:45:47;6.22;;;0.60;;
29634;SDS011;16557;54.762;56.068;2023-08-24T13:48:16;0.68;;;0.50;;
29634;SDS011;16557;54.762;56.068;2023-08-24T13:50:51;5.87;;;1.25;;
29634;SDS011;16557;54.762;56.068;2023-08-24T13:53:21;4.72;;;0.80;;
29634;SDS011;16557;54.762;56.068;2023-08-24T13:55:50;3.67;;;0.90;;
29634;SDS011;16557;54.762;56.068;2023-08-24T13:58:19;4.42;;;1.00;;
29634;SDS011;16557;54.762;56.068;2023-08-24T14:00:54;4.05;;;0.80;;
29634;SDS011;16557;54.762;56.068;2023-08-24T14:03:25;3.70;;;0.90;;
29634;SDS011;16557;54.762;56.068;2023-08-24T14:05:55;6.03;;;1.20;;
29634;SDS011;16557;54.762;56.068;2023-08-24T14:08:25;1.72;;;1.07;;
29634;SDS011;16557;54.762;56.068;2023-08-24T14:10:54;4.30;;;0.68;;
29634;SDS011;16557;54.762;56.068;2023-08-24T14:13:23;1.75;;;0.80;;
29634;SDS011;16557;54.762;56.068;2023-08-24T14:15:53;1.75;;;0.80;;
29634;SDS011;16557;54.762;56.068;2023-08-24T14:18:23;2.85;;;1.07;;
29634;SDS011;16557;54.762;56.068;2023-08-24T14:20:52;5.95;;;1.27;;
29634;SDS011;16557;54.762;56.068;2023-08-24T14:23:21;4.78;;;1.32;;
29634;SDS011;16557;54.762;56.068;2023-08-24T14:25:51;3.95;;;0.75;;
29634;SDS011;16557;54.762;56.068;2023-08-24T14:28:20;1.52;;;0.80;;
29634;SDS011;16557;54.762;56.068;2023-08-24T14:30:50;3.47;;;1.20;;
29634;SDS011;16557;54.762;56.068;2023-08-24T14:33:19;5.72;;;1.17;;
29634;SDS011;16557;54.762;56.068;2023-08-24T14:38:40;6.20;;;1.30;;
29634;SDS011;16557;54.762;56.068;2023-08-24T14:41:10;6.95;;;1.32;;
29634;SDS011;16557;54.762;56.068;2023-08-24T14:43:40;4.42;;;1.37;;
29634;SDS011;16557;54.762;56.068;2023-08-24T14:46:09;8.90;;;2.22;;
29634;SDS011;16557;54.762;56.068;2023-08-24T14:48:39;12.63;;;2.22;;
29634;SDS011;16557;54.762;56.068;2023-08-24T14:51:08;8.65;;;1.60;;
29634;SDS011;16557;54.762;56.068;2023-08-24T14:53:37;9.68;;;1.70;;
29634;SDS011;16557;54.762;56.068;2023-08-24T14:56:07;6.05;;;1.57;;
29634;SDS011;16557;54.762;56.068;2023-08-24T14:58:37;7.22;;;1.75;;
29634;SDS011;16557;54.762;56.068;2023-08-24T15:01:06;8.93;;;1.87;;
29634;SDS011;16557;54.762;56.068;2023-08-24T15:03:36;3.80;;;1.05;;
29634;SDS011;16557;54.762;56.068;2023-08-24T15:06:05;3.12;;;1.70;;